Airport View

Enter AWOS ICAO identifier for current METAR.

ex. KFNL

KPWA 310253Z AUTO 10003KT 10SM CLR 24/12 A3013 RMK AO2 SLP190 T02440122 53012

31 May 2020 03:04

Phone: 405-798-2013

Other Area AWOS: KHSD - KOKC - KRCE - KTIK

TAF KOKC 302320Z 3100/3124 11006KT P6SM SKC FM311400 16012KT P6SM SKC